Time;durP1;ratioP1;P1;durP2;ratioP2;P2;SDS_P1;SDS_P2;PMS_P1;PMS_P2;Temp;Humidity;BMP_temperature;BMP_pressure;BME280_temperature;BME280_humidity;BME280_pressure;Samples;Min_cycle;Max_cycle;Signal;HPM_P1;HPM_P2
2023/07/10 00:00:57;;;;;;;25.38;8.18;;;;;;;-144.73;100.00;54190.13;5013200;28;20390;-72
2023/07/10 00:03:23;;;;;;;44.22;9.07;;;;;;;-144.73;100.00;54198.34;5011575;28;20042;-73
2023/07/10 00:05:48;;;;;;;28.00;8.55;;;;;;;-144.73;100.00;54190.13;5008979;28;20053;-71
2023/07/10 00:08:14;;;;;;;28.45;8.25;;;;;;;-144.73;100.00;54190.13;5024171;28;20030;-72
2023/07/10 00:10:39;;;;;;;28.50;8.38;;;;;;;-144.73;100.00;54200.41;5019978;28;20018;-72
2023/07/10 00:13:05;;;;;;;32.70;8.95;;;;;;;-144.73;100.00;54153.19;5010965;28;20041;-72
2023/07/10 00:15:30;;;;;;;31.48;8.98;;;;;;;-144.73;100.00;54206.56;5010280;28;20447;-72
2023/07/10 00:17:56;;;;;;;34.70;9.35;;;;;;;-144.73;100.00;54210.66;5017964;28;20046;-74
2023/07/10 00:20:25;;;;;;;32.38;9.43;;;;;;;-144.73;100.00;54194.25;5013271;28;20032;-73
2023/07/10 00:22:50;;;;;;;25.10;8.60;;;;;;;-144.73;100.00;54181.94;5011410;28;20037;-73
2023/07/10 00:25:17;;;;;;;22.50;8.20;;;;;;;-144.73;100.00;54214.78;5011808;28;20024;-73
2023/07/10 00:27:48;;;;;;;29.90;9.10;;;;;;;-144.73;100.00;54186.03;5008081;28;20037;-73
2023/07/10 00:30:15;;;;;;;33.05;9.23;;;;;;;-144.73;100.00;54157.31;5013436;28;20549;-73
2023/07/10 00:32:42;;;;;;;25.65;8.57;;;;;;;-144.73;100.00;54206.56;5010522;28;20040;-73
2023/07/10 00:35:08;;;;;;;31.83;10.07;;;;;;;-144.73;100.00;54206.56;5007158;28;20025;-72
2023/07/10 00:37:33;;;;;;;29.52;9.25;;;;;;;-144.73;100.00;54225.03;5011959;28;20030;-72
2023/07/10 00:39:59;;;;;;;30.30;10.68;;;;;;;-144.73;100.00;54198.34;5013012;28;20033;-72
2023/07/10 00:42:26;;;;;;;33.58;8.63;;;;;;;-144.73;100.00;54165.50;5028385;28;20033;-72
2023/07/10 00:44:56;;;;;;;17.55;8.30;;;;;;;-144.73;100.00;54179.88;5020393;28;20018;-72
2023/07/10 00:47:29;;;;;;;31.75;9.35;;;;;;;-144.73;100.00;54179.88;5012572;28;20021;-72
2023/07/10 00:50:31;;;;;;;26.80;9.05;;;;;;;-144.73;100.00;54210.66;5012569;28;20021;-73
2023/07/10 00:52:57;;;;;;;;;;;;;;;-144.73;100.00;54198.34;5004315;28;20044;-72
2023/07/10 00:55:31;;;;;;;18.00;7.78;;;;;;;-144.73;100.00;54175.78;5012604;28;19909;-72
2023/07/10 00:58:15;;;;;;;28.55;8.02;;;;;;;-144.73;100.00;54214.78;5010526;28;20049;-72
2023/07/10 01:01:08;;;;;;;22.73;7.97;;;;;;;-144.73;100.00;54165.50;5008645;28;20093;-72
2023/07/10 01:03:35;;;;;;;22.20;6.82;;;;;;;-144.73;100.00;54175.78;5004867;28;20045;-72
2023/07/10 01:06:27;;;;;;;23.63;7.90;;;;;;;-144.73;100.00;54192.19;5006554;28;20017;-72
2023/07/10 01:08:56;;;;;;;27.88;8.40;;;;;;;-144.73;100.00;54173.72;5015922;28;20042;-72
2023/07/10 01:11:22;;;;;;;26.40;8.50;;;;;;;-144.73;100.00;54235.28;5029434;28;20020;-72
2023/07/10 01:13:50;;;;;;;22.95;9.35;;;;;;;-144.73;100.00;54192.19;5011288;28;20354;-72
2023/07/10 01:16:16;;;;;;;23.20;8.80;;;;;;;-144.73;100.00;54235.28;5005938;28;20033;-72
2023/07/10 01:18:42;;;;;;;24.25;7.97;;;;;;;-144.73;100.00;54161.41;5005832;28;20036;-72
2023/07/10 01:21:18;;;;;;;23.75;8.15;;;;;;;-144.73;100.00;54222.97;5012110;28;20021;-72
2023/07/10 01:23:43;;;;;;;29.23;8.55;;;;;;;-144.73;100.00;54177.81;5028970;28;20141;-73
2023/07/10 01:26:09;;;;;;;22.25;7.65;;;;;;;-144.73;100.00;54190.13;5029047;28;20525;-72
2023/07/10 01:28:34;;;;;;;21.73;7.82;;;;;;;-144.73;100.00;54190.13;5011892;28;20038;-72
2023/07/10 01:31:05;;;;;;;20.73;7.38;;;;;;;-144.73;100.00;54214.78;5005826;28;20025;-72
2023/07/10 01:33:42;;;;;;;24.87;7.97;;;;;;;-144.73;100.00;54192.19;5008918;28;20029;-72
2023/07/10 01:36:10;;;;;;;25.20;8.27;;;;;;;-144.73;100.00;54198.34;5007320;28;20525;-72
2023/07/10 01:38:41;;;;;;;23.73;7.63;;;;;;;-144.73;100.00;54249.66;5033659;28;20013;-72
2023/07/10 01:41:27;;;;;;;;;;;;;;;-144.73;100.00;54227.09;5015717;28;20036;-71
2023/07/10 01:43:53;;;;;;;22.00;7.35;;;;;;;-144.73;100.00;54227.09;5010001;28;19927;-71
2023/07/10 01:46:22;;;;;;;16.08;6.88;;;;;;;-144.73;100.00;54165.50;5015586;28;20021;-71
2023/07/10 01:48:50;;;;;;;19.98;7.07;;;;;;;-144.73;100.00;54177.81;5015779;28;20517;-71
2023/07/10 01:51:15;;;;;;;18.10;7.35;;;;;;;-144.73;100.00;54198.34;5033204;28;20021;-71
2023/07/10 01:53:44;;;;;;;21.80;7.20;;;;;;;-144.73;100.00;54202.44;5014028;28;20040;-71
2023/07/10 01:56:10;;;;;;;19.35;7.38;;;;;;;-144.73;100.00;54227.09;5015060;28;20037;-71
2023/07/10 01:58:35;;;;;;;12.65;6.00;;;;;;;-144.73;100.00;54206.56;5014096;28;20084;-71
2023/07/10 02:01:00;;;;;;;16.77;7.28;;;;;;;-144.73;100.00;54218.88;5027561;28;20050;-71
2023/07/10 02:03:26;;;;;;;21.23;7.10;;;;;;;-144.73;100.00;54198.34;5025728;28;20045;-71
2023/07/10 02:05:51;;;;;;;20.80;7.28;;;;;;;-144.73;100.00;54194.25;5032638;28;20108;-71
2023/07/10 02:08:17;;;;;;;21.15;7.10;;;;;;;-144.73;100.00;54188.09;5014087;28;20091;-71
2023/07/10 02:10:43;;;;;;;20.70;7.53;;;;;;;-144.73;100.00;54214.78;5014652;28;20020;-72
2023/07/10 02:13:08;;;;;;;21.50;7.65;;;;;;;-144.73;100.00;54194.25;5014031;28;20029;-71
2023/07/10 02:15:33;;;;;;;19.02;6.70;;;;;;;-144.73;100.00;54186.03;5012535;28;20072;-71
2023/07/10 02:17:59;;;;;;;20.40;6.82;;;;;;;-144.73;100.00;54181.94;5009701;28;20041;-71
2023/07/10 02:20:24;;;;;;;20.40;6.43;;;;;;;-144.73;100.00;54190.13;5025915;28;20034;-71
2023/07/10 02:22:50;;;;;;;17.08;7.07;;;;;;;-144.73;100.00;54239.41;5009452;28;20030;-72
2023/07/10 02:25:16;;;;;;;16.88;6.95;;;;;;;-144.73;100.00;54227.09;5013082;28;20025;-71
2023/07/10 02:27:41;;;;;;;18.42;7.22;;;;;;;-144.73;100.00;54177.81;5014198;28;20049;-71
2023/07/10 02:30:07;;;;;;;22.25;8.32;;;;;;;-144.73;100.00;54233.25;5013831;28;20029;-71
2023/07/10 02:32:32;;;;;;;15.63;6.47;;;;;;;-144.73;100.00;54198.34;5021554;28;20030;-70
2023/07/10 02:34:57;;;;;;;19.27;7.28;;;;;;;-144.73;100.00;54243.50;5031408;28;20063;-70
2023/07/10 02:37:23;;;;;;;13.75;6.50;;;;;;;-144.73;100.00;54227.09;5031367;28;20363;-73
2023/07/10 02:39:49;;;;;;;16.40;6.68;;;;;;;-144.73;100.00;54212.72;5014377;28;20021;-72
2023/07/10 02:42:14;;;;;;;23.42;8.35;;;;;;;-144.73;100.00;54214.78;5013418;28;20017;-73
2023/07/10 02:44:39;;;;;;;17.02;6.78;;;;;;;-144.73;100.00;54210.66;5013731;28;20022;-74
2023/07/10 02:47:05;;;;;;;17.05;7.38;;;;;;;-144.73;100.00;54202.44;5031300;28;20029;-73
2023/07/10 02:49:34;;;;;;;20.05;8.05;;;;;;;-144.73;100.00;54218.88;5032065;28;20044;-73
2023/07/10 02:51:59;;;;;;;18.33;7.25;;;;;;;-144.73;100.00;54171.66;5014317;28;20032;-74
2023/07/10 02:54:24;;;;;;;12.70;6.97;;;;;;;-144.73;100.00;54235.28;5031070;28;20120;-73
2023/07/10 02:56:50;;;;;;;16.38;7.43;;;;;;;-144.73;100.00;54227.09;5015119;28;20021;-74
2023/07/10 02:59:15;;;;;;;14.77;7.45;;;;;;;-144.73;100.00;54214.78;5012245;28;20025;-73
2023/07/10 03:01:41;;;;;;;18.05;7.68;;;;;;;-144.73;100.00;54214.78;5032445;28;20018;-73
2023/07/10 03:04:06;;;;;;;18.63;7.47;;;;;;;-144.73;100.00;54239.41;5031930;28;20087;-73
2023/07/10 03:06:32;;;;;;;18.83;7.57;;;;;;;-144.73;100.00;54210.66;5014698;28;20040;-74
2023/07/10 03:08:58;;;;;;;18.67;7.95;;;;;;;-144.73;100.00;54251.72;5013670;28;20093;-74
2023/07/10 03:11:24;;;;;;;17.30;7.55;;;;;;;-144.73;100.00;54241.44;5013970;28;20028;-74
2023/07/10 03:13:52;;;;;;;20.15;7.88;;;;;;;-144.73;100.00;54259.91;5012998;28;20033;-73
2023/07/10 03:16:18;;;;;;;15.85;7.53;;;;;;;-144.73;100.00;54231.19;5012991;28;20029;-74
2023/07/10 03:18:43;;;;;;;20.30;7.97;;;;;;;-144.73;100.00;54218.88;5013141;28;20092;-73
2023/07/10 03:21:09;;;;;;;16.20;7.65;;;;;;;-144.73;100.00;54214.78;5013834;28;20052;-73
2023/07/10 03:23:34;;;;;;;16.10;7.55;;;;;;;-144.73;100.00;54177.81;5012721;28;20033;-73
2023/07/10 03:26:00;;;;;;;17.73;7.50;;;;;;;-144.73;100.00;54206.56;5013165;28;20041;-73
2023/07/10 03:28:27;;;;;;;12.38;6.93;;;;;;;-144.73;100.00;54243.50;5012770;28;20033;-73
2023/07/10 03:30:52;;;;;;;15.50;6.80;;;;;;;-144.73;100.00;54227.09;5013684;28;20087;-73
2023/07/10 03:33:18;;;;;;;14.93;6.68;;;;;;;-144.73;100.00;54255.81;5030454;28;20037;-73
2023/07/10 03:35:48;;;;;;;13.70;7.10;;;;;;;-144.73;100.00;54227.09;5030805;28;20021;-73
2023/07/10 03:38:15;;;;;;;13.63;7.50;;;;;;;-144.73;100.00;54206.56;5012903;28;20094;-73
2023/07/10 03:40:54;;;;;;;13.95;7.95;;;;;;;-144.73;100.00;54231.19;5013404;28;20033;-74
2023/07/10 03:43:20;;;;;;;15.50;7.40;;;;;;;-144.73;100.00;54231.19;5016994;28;20053;-73
2023/07/10 03:45:45;;;;;;;23.90;8.35;;;;;;;-144.73;100.00;54243.50;5031331;28;20056;-73
2023/07/10 03:48:11;;;;;;;17.70;8.52;;;;;;;-144.73;100.00;54255.81;5030531;28;20072;-74
2023/07/10 03:50:37;;;;;;;23.88;10.07;;;;;;;-144.73;100.00;54233.25;5012325;28;20158;-73
2023/07/10 03:53:02;;;;;;;21.33;9.88;;;;;;;-144.73;100.00;54235.28;5011374;28;20068;-74
2023/07/10 03:55:28;;;;;;;19.38;9.55;;;;;;;-144.73;100.00;54222.97;5013129;28;20045;-74
2023/07/10 03:57:53;;;;;;;19.88;10.20;;;;;;;-144.73;100.00;54231.19;5013074;28;20061;-74
2023/07/10 04:00:19;;;;;;;17.40;9.57;;;;;;;-144.73;100.00;54266.06;5030152;28;20052;-74
2023/07/10 04:02:44;;;;;;;23.52;9.75;;;;;;;-144.73;100.00;54247.59;5025983;28;20116;-74
2023/07/10 04:05:10;;;;;;;14.30;8.73;;;;;;;-144.73;100.00;54218.88;5011406;28;20029;-74
2023/07/10 04:07:35;;;;;;;20.30;8.65;;;;;;;-144.73;100.00;54276.34;5012623;28;20030;-74
2023/07/10 04:10:01;;;;;;;15.65;8.50;;;;;;;-144.73;100.00;54243.50;5012241;28;20026;-74
2023/07/10 04:12:26;;;;;;;11.82;8.05;;;;;;;-144.73;100.00;54243.50;5029976;28;20033;-75
2023/07/10 04:14:51;;;;;;;18.02;8.35;;;;;;;-144.73;100.00;54229.13;5012299;28;20026;-74
2023/07/10 04:17:17;;;;;;;18.13;8.40;;;;;;;-144.73;100.00;54247.59;5012535;28;20025;-74
2023/07/10 04:19:42;;;;;;;18.63;9.50;;;;;;;-144.73;100.00;54222.97;5012467;28;20028;-76
2023/07/10 04:22:08;;;;;;;13.75;7.90;;;;;;;-144.73;100.00;54231.19;5012115;28;20037;-74
2023/07/10 04:24:33;;;;;;;15.27;8.38;;;;;;;-144.73;100.00;54247.59;5012347;28;20030;-74
2023/07/10 04:26:59;;;;;;;18.30;8.73;;;;;;;-144.73;100.00;54259.91;5013080;28;20060;-73
2023/07/10 04:29:24;;;;;;;16.52;8.23;;;;;;;-144.73;100.00;54235.28;5011580;28;20058;-74
2023/07/10 04:31:50;;;;;;;13.07;8.82;;;;;;;-144.73;100.00;54278.41;5013164;28;20025;-73
2023/07/10 04:34:15;;;;;;;18.35;8.77;;;;;;;-144.73;100.00;54243.50;5011352;28;20040;-74
2023/07/10 04:36:42;;;;;;;12.57;7.47;;;;;;;-144.73;100.00;54255.81;5012966;28;20021;-73
2023/07/10 04:39:08;;;;;;;16.42;9.48;;;;;;;-144.73;100.00;54233.25;5011841;28;20030;-74
2023/07/10 04:41:34;;;;;;;20.77;9.50;;;;;;;-144.73;100.00;54212.72;5012304;28;20025;-73
2023/07/10 04:44:00;;;;;;;20.60;9.48;;;;;;;-144.73;100.00;54259.91;5011934;28;20057;-73
2023/07/10 04:46:27;;;;;;;16.77;9.77;;;;;;;-144.73;100.00;54231.19;5007889;28;20022;-73
2023/07/10 04:48:52;;;;;;;16.85;8.35;;;;;;;-144.73;100.00;54214.78;5011477;28;20036;-74
2023/07/10 04:51:19;;;;;;;20.58;8.48;;;;;;;-144.73;100.00;54268.13;5012289;28;20025;-76
2023/07/10 04:53:45;;;;;;;15.48;8.23;;;;;;;-144.73;100.00;54235.28;5006320;28;20371;-74
2023/07/10 04:56:12;;;;;;;16.13;8.93;;;;;;;-144.73;100.00;54276.34;5030437;28;20052;-74
2023/07/10 04:58:51;;;;;;;21.77;10.50;;;;;;;-144.73;100.00;54251.72;5022272;28;22190;-74
2023/07/10 05:01:18;;;;;;;18.88;9.45;;;;;;;-144.73;100.00;54206.56;5029632;28;20029;-74
2023/07/10 05:03:43;;;;;;;15.20;9.23;;;;;;;-144.73;100.00;54231.19;5009386;28;20075;-74
2023/07/10 05:06:09;;;;;;;18.92;8.10;;;;;;;-144.73;100.00;54243.50;5012245;28;20037;-74
2023/07/10 05:08:35;;;;;;;17.30;8.18;;;;;;;-144.73;100.00;54276.34;5027314;28;20038;-74
2023/07/10 05:11:01;;;;;;;16.60;9.10;;;;;;;-144.73;100.00;54251.72;5012979;28;20038;-74
2023/07/10 05:13:28;;;;;;;14.55;9.32;;;;;;;-144.73;100.00;54222.97;5015302;28;20044;-73
2023/07/10 05:15:55;;;;;;;21.73;9.32;;;;;;;-144.73;100.00;54222.97;5014733;28;20025;-74
2023/07/10 05:18:20;;;;;;;16.95;10.18;;;;;;;-144.73;100.00;54241.44;5010237;28;20092;-75
2023/07/10 05:20:47;;;;;;;18.30;10.10;;;;;;;-144.73;100.00;54255.81;5027215;28;20025;-74
2023/07/10 05:23:14;;;;;;;20.38;8.52;;;;;;;-144.73;100.00;54235.28;5018177;28;20083;-74
2023/07/10 05:25:39;;;;;;;17.38;10.07;;;;;;;-144.73;100.00;54247.59;5015242;28;20024;-76
2023/07/10 05:28:06;;;;;;;18.17;9.85;;;;;;;-144.73;100.00;54247.59;5015530;28;20034;-74
2023/07/10 05:30:34;;;;;;;15.57;9.45;;;;;;;-144.73;100.00;54218.88;5015038;28;20506;-74
2023/07/10 05:33:00;;;;;;;17.25;8.30;;;;;;;-144.73;100.00;54235.28;5015672;28;20025;-74
2023/07/10 05:35:25;;;;;;;21.67;10.50;;;;;;;-144.73;100.00;54239.41;5014585;28;20026;-77
2023/07/10 05:37:50;;;;;;;11.35;8.50;;;;;;;-144.73;100.00;54237.34;5013999;28;20072;-75
2023/07/10 05:40:16;;;;;;;16.65;9.82;;;;;;;-144.73;100.00;54284.56;5015591;28;20026;-74
2023/07/10 05:42:42;;;;;;;16.52;9.57;;;;;;;-144.73;100.00;54255.81;5015284;28;20171;-74
2023/07/10 05:45:08;;;;;;;20.67;9.93;;;;;;;-144.73;100.00;54235.28;5015026;28;20479;-74
2023/07/10 05:47:33;;;;;;;13.77;8.80;;;;;;;-144.73;100.00;54231.19;5013549;28;20036;-75
2023/07/10 05:49:58;;;;;;;22.75;11.25;;;;;;;-144.73;100.00;54222.97;5015237;28;20053;-75
2023/07/10 05:52:24;;;;;;;18.75;10.23;;;;;;;-144.73;100.00;54227.09;5014427;28;20041;-76
2023/07/10 05:54:49;;;;;;;14.88;9.73;;;;;;;-144.73;100.00;54231.19;5013732;28;20025;-74
2023/07/10 05:57:15;;;;;;;18.52;8.60;;;;;;;-144.73;100.00;54247.59;5032673;28;20095;-76
2023/07/10 05:59:40;;;;;;;20.90;8.88;;;;;;;-144.73;100.00;54259.91;5014829;28;20034;-74
2023/07/10 06:02:10;;;;;;;18.30;10.02;;;;;;;-144.73;100.00;54247.59;5014869;28;20025;-74
2023/07/10 06:04:35;;;;;;;13.52;9.40;;;;;;;-144.73;100.00;54239.41;5014770;28;20033;-75
2023/07/10 06:07:01;;;;;;;19.52;9.07;;;;;;;-144.73;100.00;54255.81;5032187;28;20029;-74
2023/07/10 06:09:26;;;;;;;17.80;9.50;;;;;;;-144.73;100.00;54220.94;5024927;28;20033;-75
2023/07/10 06:11:52;;;;;;;19.00;8.65;;;;;;;-144.73;100.00;54241.44;5018645;28;20026;-75
2023/07/10 06:14:17;;;;;;;15.10;10.13;;;;;;;-144.73;100.00;54255.81;5020717;28;20048;-73
2023/07/10 06:16:42;;;;;;;19.60;11.45;;;;;;;-144.73;100.00;54247.59;5031080;28;20059;-75
2023/07/10 06:19:11;;;;;;;15.32;9.65;;;;;;;-144.73;100.00;54210.66;5013050;28;20061;-76
2023/07/10 06:21:36;;;;;;;15.70;9.80;;;;;;;-144.73;100.00;54239.41;5031266;28;20498;-74
2023/07/10 06:24:02;;;;;;;25.38;10.27;;;;;;;-144.73;100.00;54210.66;5009736;28;20061;-74
2023/07/10 06:26:27;;;;;;;20.58;8.95;;;;;;;-144.73;100.00;54268.13;5012098;28;20018;-75
2023/07/10 06:28:52;;;;;;;16.15;9.40;;;;;;;-144.73;100.00;54235.28;5031494;28;20096;-75
2023/07/10 06:31:18;;;;;;;17.95;9.45;;;;;;;-144.73;100.00;54222.97;5014900;28;20033;-75
2023/07/10 06:33:43;;;;;;;15.82;9.18;;;;;;;-144.73;100.00;54239.41;5012573;28;20025;-75
2023/07/10 06:36:09;;;;;;;19.83;9.25;;;;;;;-144.73;100.00;54276.34;5014241;28;20017;-73
2023/07/10 06:38:35;;;;;;;19.58;9.98;;;;;;;-144.73;100.00;54247.59;5014234;28;20037;-74
2023/07/10 06:41:00;;;;;;;17.45;9.75;;;;;;;-144.73;100.00;54243.50;5014503;28;20018;-74
2023/07/10 06:43:26;;;;;;;19.90;9.13;;;;;;;-144.73;100.00;54247.59;5013592;28;20025;-74
2023/07/10 06:45:54;;;;;;;14.45;9.13;;;;;;;-144.73;100.00;54276.34;5010889;28;20048;-74
2023/07/10 06:48:20;;;;;;;17.58;9.88;;;;;;;-144.73;100.00;54292.75;5031907;28;20025;-74
2023/07/10 06:50:48;;;;;;;19.90;9.93;;;;;;;-144.73;100.00;54239.41;5030036;28;20018;-74
2023/07/10 06:53:14;;;;;;;20.42;10.52;;;;;;;-144.73;100.00;54233.25;5013302;28;20030;-75
2023/07/10 06:55:40;;;;;;;12.82;9.05;;;;;;;-144.73;100.00;54288.66;5012208;28;20031;-75
2023/07/10 06:58:06;;;;;;;23.67;11.55;;;;;;;-144.73;100.00;54266.06;5010373;28;20045;-78
2023/07/10 07:00:31;;;;;;;20.80;13.68;;;;;;;-144.73;100.00;54251.72;5013368;28;20030;-76
2023/07/10 07:02:57;;;;;;;27.33;14.55;;;;;;;-144.73;100.00;54247.59;5028465;28;20628;-77
2023/07/10 07:05:22;;;;;;;46.53;15.93;;;;;;;-144.73;100.00;54342.03;5037919;28;20037;-84
2023/07/10 07:07:48;;;;;;;26.13;16.48;;;;;;;-144.73;100.00;54342.03;5024555;28;20510;-81
2023/07/10 07:10:14;;;;;;;25.40;17.80;;;;;;;-144.73;100.00;54282.50;5023930;28;20028;-80
2023/07/10 07:12:43;;;;;;;35.35;22.55;;;;;;;-144.73;100.00;54280.44;5021223;28;20118;-80
2023/07/10 07:15:10;;;;;;;40.35;25.90;;;;;;;-144.73;100.00;54342.03;5022339;28;20112;-80
2023/07/10 07:17:36;;;;;;;38.33;24.27;;;;;;;-144.73;100.00;54247.59;5019247;28;20033;-79
2023/07/10 07:20:02;;;;;;;29.45;23.20;;;;;;;-144.73;100.00;54278.41;5018879;28;20068;-78
2023/07/10 07:22:28;;;;;;;35.30;24.02;;;;;;;-144.73;100.00;54321.50;5011503;28;20050;-78
2023/07/10 07:24:53;;;;;;;36.20;25.77;;;;;;;-144.73;100.00;54284.56;5013478;28;20045;-78
2023/07/10 07:27:18;;;;;;;40.90;28.85;;;;;;;-144.73;100.00;54325.59;5015062;28;20025;-78
2023/07/10 07:29:44;;;;;;;40.38;25.08;;;;;;;-144.73;100.00;54288.66;5014487;28;20025;-77
2023/07/10 07:32:11;;;;;;;33.78;22.98;;;;;;;-144.73;100.00;54290.72;5018978;28;20017;-79
2023/07/10 07:34:37;;;;;;;36.67;22.60;;;;;;;-144.73;100.00;54307.13;5034363;28;20359;-78
2023/07/10 07:37:04;;;;;;;29.75;22.10;;;;;;;-144.73;100.00;54276.34;5020406;28;20115;-79
2023/07/10 07:39:31;;;;;;;36.92;22.10;;;;;;;-144.73;100.00;54276.34;5018286;28;20053;-79
2023/07/10 07:41:58;;;;;;;27.13;17.80;;;;;;;-144.73;100.00;54282.50;5020067;28;20048;-78
2023/07/10 07:44:24;;;;;;;28.10;16.77;;;;;;;-144.73;100.00;54288.66;5013922;28;20033;-78
2023/07/10 07:46:50;;;;;;;24.33;16.55;;;;;;;-144.73;100.00;54276.34;5012812;28;20037;-78
2023/07/10 07:49:15;;;;;;;22.35;14.95;;;;;;;-144.73;100.00;54276.34;5007755;28;20025;-78
2023/07/10 07:51:42;;;;;;;22.88;15.20;;;;;;;-144.73;100.00;54259.91;4999393;28;20018;-78
2023/07/10 07:54:12;;;;;;;22.77;11.77;;;;;;;-144.73;100.00;54288.66;5024969;28;20495;-77
2023/07/10 07:56:37;;;;;;;17.92;12.07;;;;;;;-144.73;100.00;54342.03;5014231;28;20075;-78
2023/07/10 07:59:03;;;;;;;21.52;12.07;;;;;;;-144.73;100.00;54305.06;5011806;28;20029;-77
2023/07/10 08:01:29;;;;;;;19.20;10.85;;;;;;;-144.73;100.00;54292.75;5027434;28;20108;-77
2023/07/10 08:03:54;;;;;;;17.63;11.13;;;;;;;-144.73;100.00;54284.56;5008651;28;20128;-76
2023/07/10 08:06:20;;;;;;;19.92;10.00;;;;;;;-144.73;100.00;54292.75;5028196;28;20024;-77
2023/07/10 08:08:46;;;;;;;16.58;8.43;;;;;;;-144.73;100.00;54329.72;5011309;28;20022;-77
2023/07/10 08:11:11;;;;;;;22.15;9.48;;;;;;;-144.73;100.00;54280.44;5009448;28;20041;-76
2023/07/10 08:13:36;;;;;;;16.17;7.72;;;;;;;-144.73;100.00;54296.88;5011415;28;20033;-76
2023/07/10 08:16:02;;;;;;;14.00;6.38;;;;;;;-144.73;100.00;54276.34;5011932;28;20116;-77
2023/07/10 08:18:27;;;;;;;16.77;6.65;;;;;;;-144.73;100.00;54276.34;5012631;28;20045;-77
2023/07/10 08:21:04;;;;;;;13.60;6.68;;;;;;;-144.73;100.00;54352.28;5020797;28;20022;-77
2023/07/10 08:23:30;;;;;;;12.13;6.65;;;;;;;-144.73;100.00;54284.56;5009992;28;20133;-77
2023/07/10 08:25:56;;;;;;;16.05;6.82;;;;;;;-144.73;100.00;54268.13;5011700;28;20021;-77
2023/07/10 08:28:21;;;;;;;15.40;7.82;;;;;;;-144.73;100.00;54305.06;5011773;28;20394;-77
2023/07/10 08:30:46;;;;;;;17.10;7.85;;;;;;;-144.73;100.00;54292.75;5012073;28;20025;-79
2023/07/10 08:33:12;;;;;;;17.08;8.23;;;;;;;-144.73;100.00;54276.34;5011565;28;20045;-77
2023/07/10 08:35:37;;;;;;;19.27;9.90;;;;;;;-144.73;100.00;54292.75;5011779;28;20478;-77
2023/07/10 08:38:02;;;;;;;21.05;8.95;;;;;;;-144.73;100.00;54298.91;5008918;28;20025;-78
2023/07/10 08:40:34;;;;;;;22.58;9.70;;;;;;;-144.73;100.00;54321.50;5004782;28;20029;-77
2023/07/10 08:43:39;;;;;;;19.60;9.43;;;;;;;-144.73;100.00;54243.50;5013044;28;20029;-77
2023/07/10 08:46:13;;;;;;;18.75;8.80;;;;;;;-144.73;100.00;54300.97;5032300;28;20033;-77
2023/07/10 08:48:50;;;;;;;18.05;9.20;;;;;;;-144.73;100.00;54309.19;5016299;28;20031;-77
2023/07/10 08:51:21;;;;;;;20.67;9.65;;;;;;;-144.73;100.00;54300.97;5014666;28;20021;-78
2023/07/10 08:54:13;;;;;;;17.13;8.90;;;;;;;-144.73;100.00;54296.88;4997747;28;20065;-77
2023/07/10 08:56:47;;;;;;;28.23;11.25;;;;;;;-144.73;100.00;54313.28;5028398;28;20037;-78
2023/07/10 08:59:53;;;;;;;20.35;10.13;;;;;;;-144.73;100.00;54300.97;5011793;28;20502;-77
2023/07/10 09:02:35;;;;;;;24.48;9.90;;;;;;;-144.73;100.00;54325.59;5015192;28;20028;-77
2023/07/10 09:05:04;;;;;;;23.48;9.48;;;;;;;-144.73;100.00;54346.13;5016867;28;20112;-78
2023/07/10 09:07:42;;;;;;;27.38;9.75;;;;;;;-144.73;100.00;54315.34;5035114;28;20041;-78
2023/07/10 09:10:12;;;;;;;19.88;9.32;;;;;;;-144.73;100.00;54284.56;5017684;28;20028;-77
2023/07/10 09:12:41;;;;;;;23.83;8.70;;;;;;;-144.73;100.00;54239.41;5017769;28;20089;-77
2023/07/10 09:15:14;;;;;;;25.30;8.65;;;;;;;-144.73;100.00;54251.72;5012744;28;20104;-78
2023/07/10 09:18:00;;;;;;;28.55;9.80;;;;;;;-144.73;100.00;54296.88;5017964;28;20030;-77
2023/07/10 09:20:25;;;;;;;16.98;7.60;;;;;;;-144.73;100.00;54307.13;5007247;28;20117;-78
2023/07/10 09:22:58;;;;;;;26.92;8.02;;;;;;;-144.73;100.00;54329.72;5015127;28;20113;-77
2023/07/10 09:25:24;;;;;;;21.15;7.43;;;;;;;-144.73;100.00;54268.13;5016989;28;20115;-77
2023/07/10 09:27:50;;;;;;;18.80;8.23;;;;;;;-144.73;100.00;54276.34;5016729;28;20064;-77
2023/07/10 09:30:27;;;;;;;27.45;8.02;;;;;;;-144.73;100.00;54266.06;5016635;28;20034;-77
2023/07/10 09:33:00;;;;;;;23.40;7.70;;;;;;;-144.73;100.00;54276.34;5014128;28;20038;-77
2023/07/10 09:35:26;;;;;;;16.58;6.30;;;;;;;-144.73;100.00;54276.34;5016870;28;20104;-79
2023/07/10 09:37:51;;;;;;;18.33;5.97;;;;;;;-144.73;100.00;54239.41;5015711;28;20121;-78
2023/07/10 09:40:36;;;;;;;14.30;5.20;;;;;;;-144.73;100.00;54200.41;5015530;28;20087;-78
2023/07/10 09:43:12;;;;;;;12.43;4.90;;;;;;;-144.73;100.00;54206.56;5033290;28;20068;-77
2023/07/10 09:45:43;;;;;;;14.13;5.03;;;;;;;-144.73;100.00;54321.50;5004509;28;20034;-76
2023/07/10 09:48:13;;;;;;;9.63;4.18;;;;;;;-144.73;100.00;54280.44;5012211;28;20100;-77
2023/07/10 09:50:38;;;;;;;14.30;5.30;;;;;;;-144.73;100.00;54288.66;5014819;28;20018;-77
2023/07/10 09:53:04;;;;;;;16.15;4.53;;;;;;;-144.73;100.00;54231.19;5033172;28;20106;-77
2023/07/10 09:55:29;;;;;;;10.88;4.22;;;;;;;-144.73;100.00;54280.44;5015163;28;20017;-77
2023/07/10 09:58:00;;;;;;;12.10;4.57;;;;;;;-144.73;100.00;54243.50;5013973;28;20063;-76
2023/07/10 10:00:28;;;;;;;12.75;4.80;;;;;;;-144.73;100.00;54284.56;5011425;28;20040;-76
2023/07/10 10:02:55;;;;;;;11.40;3.83;;;;;;;-144.73;100.00;54261.97;5006722;28;20116;-77
2023/07/10 10:05:21;;;;;;;11.77;3.78;;;;;;;-144.73;100.00;54235.28;5008603;28;20072;-76
2023/07/10 10:07:49;;;;;;;9.20;3.50;;;;;;;-144.73;100.00;54218.88;5015490;28;20088;-76
2023/07/10 10:10:27;;;;;;;9.75;3.53;;;;;;;-144.73;100.00;54288.66;5015428;28;20080;-77
2023/07/10 10:13:11;;;;;;;5.30;3.17;;;;;;;-144.73;100.00;54247.59;4995926;28;20026;-76
2023/07/10 10:15:47;;;;;;;7.80;3.30;;;;;;;-144.73;100.00;54251.72;5014868;28;20094;-76
2023/07/10 10:18:25;;;;;;;9.43;4.03;;;;;;;-144.73;100.00;54222.97;5014475;28;20057;-76
2023/07/10 10:20:53;;;;;;;7.45;2.95;;;;;;;-144.73;100.00;54210.66;5018142;28;20079;-76
2023/07/10 10:23:40;;;;;;;14.38;3.75;;;;;;;-144.73;100.00;54261.97;5014464;28;20101;-76
2023/07/10 10:26:50;;;;;;;10.13;3.38;;;;;;;-144.73;100.00;54276.34;5013534;28;20029;-75
2023/07/10 10:29:43;;;;;;;8.00;2.70;;;;;;;-144.73;91.42;54247.59;4948713;29;20051;-75
2023/07/10 10:33:03;;;;;;;11.10;4.03;;;;;;;-144.73;89.87;54296.88;4961292;28;20023;-76
2023/07/10 10:35:46;;;;;;;6.57;3.13;;;;;;;-144.73;92.70;54284.56;5025834;28;20040;-75
2023/07/10 10:38:22;;;;;;;5.63;2.90;;;;;;;-144.73;95.29;54235.28;5015058;28;20040;-75
2023/07/10 10:41:01;;;;;;;5.72;2.50;;;;;;;-144.73;93.92;54247.59;5015475;28;20112;-75
2023/07/10 10:43:33;;;;;;;9.13;3.70;;;;;;;-144.73;97.19;54255.81;5014205;28;20068;-75
2023/07/10 10:46:01;;;;;;;;;;;;;;;-144.73;93.94;54251.72;5015529;28;20112;-75
2023/07/10 10:48:39;;;;;;;8.32;2.88;;;;;;;-144.73;90.11;54243.50;5014624;28;19913;-75
2023/07/10 10:51:33;;;;;;;14.00;3.72;;;;;;;-144.73;86.06;54251.72;5014438;28;20017;-74
2023/07/10 10:54:10;;;;;;;9.20;3.33;;;;;;;-144.73;80.03;54276.34;5031768;28;20045;-74
2023/07/10 10:56:46;;;;;;;6.07;3.20;;;;;;;-144.73;83.37;54231.19;5014917;28;20022;-75
2023/07/10 10:59:33;;;;;;;13.10;2.88;;;;;;;-144.73;79.89;54259.91;5014225;28;20058;-74
2023/07/10 11:02:36;;;;;;;6.88;3.53;;;;;;;-144.73;79.83;54190.13;5014740;28;20025;-74
2023/07/10 11:05:12;;;;;;;7.38;3.53;;;;;;;-144.73;81.94;54243.50;5014032;28;20037;-75
2023/07/10 11:07:42;;;;;;;7.32;3.78;;;;;;;-144.73;84.00;54235.28;5014268;28;20033;-74
2023/07/10 11:10:28;;;;;;;7.93;4.25;;;;;;;-144.73;86.03;54255.81;5031777;28;20037;-74